Time;durP1;ratioP1;P1;durP2;ratioP2;P2;SDS_P1;SDS_P2;PMS_P1;PMS_P2;Temp;Humidity;BMP_temperature;BMP_pressure;BME280_temperature;BME280_humidity;BME280_pressure;Samples;Min_cycle;Max_cycle;Signal;HPM_P1;HPM_P2
2023/07/18 00:01:05;;;;;;;0.55;0.55;;;;;;;;;;7395148;19;20140;-86
2023/07/18 00:03:32;;;;;;;0.60;0.60;;;;;;;;;;7393813;19;20224;-86
2023/07/18 00:05:58;;;;;;;1.85;1.40;;;;;;;;;;7392833;19;20117;-86
2023/07/18 00:08:25;;;;;;;1.40;1.30;;;;;;;;;;7393997;19;20637;-86
2023/07/18 00:10:52;;;;;;;0.77;0.77;;;;;;;;;;7389657;19;20137;-86
2023/07/18 00:13:18;;;;;;;0.82;0.82;;;;;;;;;;7394351;19;20125;-85
2023/07/18 00:15:46;;;;;;;0.60;0.57;;;;;;;;;;7392847;19;20136;-86
2023/07/18 00:18:14;;;;;;;0.88;0.85;;;;;;;;;;7394144;19;20141;-85
2023/07/18 00:20:41;;;;;;;0.88;0.88;;;;;;;;;;7396864;19;20140;-86
2023/07/18 00:23:10;;;;;;;2.65;0.77;;;;;;;;;;7396579;19;20129;-85
2023/07/18 00:25:38;;;;;;;0.68;0.68;;;;;;;;;;7393906;19;20196;-85
2023/07/18 00:28:05;;;;;;;0.80;0.80;;;;;;;;;;7392846;19;20168;-84
2023/07/18 00:30:32;;;;;;;0.90;0.90;;;;;;;;;;7397258;19;20139;-85
2023/07/18 00:32:59;;;;;;;0.88;0.80;;;;;;;;;;7394476;19;20137;-84
2023/07/18 00:35:27;;;;;;;0.75;0.75;;;;;;;;;;7394190;19;20652;-85
2023/07/18 00:37:53;;;;;;;0.65;0.65;;;;;;;;;;7392831;19;20177;-85
2023/07/18 00:40:20;;;;;;;3.53;1.00;;;;;;;;;;7392156;19;20168;-85
2023/07/18 00:42:50;;;;;;;0.77;0.77;;;;;;;;;;7393244;19;20200;-85
2023/07/18 00:45:16;;;;;;;1.65;0.98;;;;;;;;;;7391372;19;20140;-85
2023/07/18 00:47:46;;;;;;;0.88;0.88;;;;;;;;;;7390751;19;20189;-84
2023/07/18 00:50:17;;;;;;;0.80;0.80;;;;;;;;;;7394495;19;20165;-85
2023/07/18 00:52:48;;;;;;;2.50;0.90;;;;;;;;;;7390401;19;20606;-84
2023/07/18 00:55:16;;;;;;;0.93;0.88;;;;;;;;;;7400167;19;20189;-85
2023/07/18 00:57:45;;;;;;;0.70;0.70;;;;;;;;;;7399123;19;20168;-85
2023/07/18 01:00:12;;;;;;;1.10;1.00;;;;;;;;;;7402254;19;20143;-84
2023/07/18 01:02:41;;;;;;;0.50;0.50;;;;;;;;;;7401640;19;20612;-85
2023/07/18 01:05:08;;;;;;;1.05;1.05;;;;;;;;;;7398077;19;20152;-85
2023/07/18 01:07:35;;;;;;;1.02;1.02;;;;;;;;;;7400369;19;20203;-85
2023/07/18 01:10:23;;;;;;;0.95;0.95;;;;;;;;;;7400482;19;20148;-85
2023/07/18 01:12:51;;;;;;;0.82;0.82;;;;;;;;;;7401803;19;20152;-85
2023/07/18 01:15:19;;;;;;;0.65;0.65;;;;;;;;;;7399814;19;20147;-85
2023/07/18 01:17:46;;;;;;;0.60;0.60;;;;;;;;;;7399661;19;20697;-85
2023/07/18 01:20:21;;;;;;;1.05;1.02;;;;;;;;;;7400387;19;20594;-85
2023/07/18 01:22:53;;;;;;;0.70;0.70;;;;;;;;;;7398859;19;20200;-85
2023/07/18 01:25:21;;;;;;;0.70;0.70;;;;;;;;;;7398316;19;20150;-85
2023/07/18 01:27:49;;;;;;;1.33;1.30;;;;;;;;;;7397920;19;20248;-85
2023/07/18 01:30:19;;;;;;;0.65;0.65;;;;;;;;;;7400825;19;20125;-86
2023/07/18 01:32:48;;;;;;;0.93;0.90;;;;;;;;;;7400255;19;20141;-85
2023/07/18 01:35:17;;;;;;;0.85;0.85;;;;;;;;;;7401127;19;20149;-85
2023/07/18 01:37:46;;;;;;;1.17;1.05;;;;;;;;;;7401046;19;20175;-86
2023/07/18 01:40:15;;;;;;;1.00;1.00;;;;;;;;;;7402069;19;20129;-85
2023/07/18 01:42:42;;;;;;;1.00;1.00;;;;;;;;;;7400941;19;20133;-85
2023/07/18 01:45:10;;;;;;;1.05;0.95;;;;;;;;;;7401014;19;20183;-85
2023/07/18 01:47:37;;;;;;;0.70;0.70;;;;;;;;;;7395550;19;20165;-85
2023/07/18 01:50:05;;;;;;;1.10;1.02;;;;;;;;;;7402046;19;20161;-86
2023/07/18 01:52:32;;;;;;;0.85;0.85;;;;;;;;;;7399937;19;20134;-85
2023/07/18 01:55:00;;;;;;;0.75;0.75;;;;;;;;;;7399750;19;20140;-86
2023/07/18 01:57:40;;;;;;;0.75;0.75;;;;;;;;;;7398246;19;20501;-85
2023/07/18 02:00:12;;;;;;;1.38;1.27;;;;;;;;;;7398711;19;20147;-86
2023/07/18 02:02:39;;;;;;;0.70;0.70;;;;;;;;;;7398684;19;20157;-86
2023/07/18 02:05:06;;;;;;;2.65;1.23;;;;;;;;;;7395338;19;20146;-86
2023/07/18 02:07:33;;;;;;;0.70;0.70;;;;;;;;;;7395742;19;20164;-86
2023/07/18 02:10:01;;;;;;;0.75;0.75;;;;;;;;;;7398497;19;20156;-86
2023/07/18 02:12:27;;;;;;;0.50;0.50;;;;;;;;;;7401038;19;20139;-86
2023/07/18 02:14:54;;;;;;;0.70;0.70;;;;;;;;;;7399860;19;20141;-86
2023/07/18 02:17:21;;;;;;;1.15;0.88;;;;;;;;;;7399190;19;20608;-86
2023/07/18 02:19:48;;;;;;;0.65;0.65;;;;;;;;;;7400389;19;20139;-86
2023/07/18 02:22:14;;;;;;;0.70;0.70;;;;;;;;;;7399299;19;20129;-84
2023/07/18 02:24:41;;;;;;;1.17;0.70;;;;;;;;;;7399333;19;20118;-86
2023/07/18 02:27:08;;;;;;;1.17;1.08;;;;;;;;;;7399450;19;20141;-86
2023/07/18 02:29:34;;;;;;;0.65;0.65;;;;;;;;;;7399706;19;20129;-84
2023/07/18 02:32:02;;;;;;;0.50;0.50;;;;;;;;;;7399256;19;20167;-86
2023/07/18 02:34:29;;;;;;;0.55;0.55;;;;;;;;;;7398635;19;20144;-86
2023/07/18 02:36:56;;;;;;;0.68;0.68;;;;;;;;;;7399223;19;20641;-85
2023/07/18 02:39:23;;;;;;;0.82;0.80;;;;;;;;;;7397652;19;20145;-85
2023/07/18 02:41:49;;;;;;;0.60;0.60;;;;;;;;;;7398200;19;20490;-84
2023/07/18 02:44:17;;;;;;;0.68;0.68;;;;;;;;;;7399546;19;20590;-86
2023/07/18 02:46:43;;;;;;;0.50;0.50;;;;;;;;;;7394561;19;20128;-84
2023/07/18 02:49:10;;;;;;;2.15;1.00;;;;;;;;;;7397807;19;20633;-86
2023/07/18 02:51:37;;;;;;;0.60;0.60;;;;;;;;;;7397465;19;20152;-84
2023/07/18 02:54:03;;;;;;;0.55;0.55;;;;;;;;;;7397516;19;20201;-86
2023/07/18 02:56:32;;;;;;;0.85;0.85;;;;;;;;;;7398773;19;20627;-87
2023/07/18 02:58:58;;;;;;;0.63;0.63;;;;;;;;;;7398811;19;20551;-85
2023/07/18 03:01:26;;;;;;;3.97;0.88;;;;;;;;;;7419387;19;20165;-85
2023/07/18 03:03:54;;;;;;;1.08;0.65;;;;;;;;;;7429251;19;20142;-84
2023/07/18 03:06:23;;;;;;;0.50;0.50;;;;;;;;;;7423692;19;20121;-87
2023/07/18 03:08:50;;;;;;;0.55;0.55;;;;;;;;;;7395095;19;20145;-86
2023/07/18 03:11:18;;;;;;;0.82;0.75;;;;;;;;;;7393228;19;20129;-86
2023/07/18 03:13:45;;;;;;;2.28;1.10;;;;;;;;;;7394674;19;20137;-86
2023/07/18 03:16:12;;;;;;;1.05;1.05;;;;;;;;;;7393470;19;20219;-84
2023/07/18 03:18:40;;;;;;;0.73;0.73;;;;;;;;;;7390224;19;20228;-86
2023/07/18 03:21:07;;;;;;;0.55;0.55;;;;;;;;;;7395795;19;20133;-85
2023/07/18 03:23:33;;;;;;;1.23;1.15;;;;;;;;;;7395842;19;20133;-85
2023/07/18 03:26:01;;;;;;;0.52;0.52;;;;;;;;;;7395433;19;20151;-84
2023/07/18 03:28:27;;;;;;;0.60;0.60;;;;;;;;;;7395745;19;20174;-86
2023/07/18 03:30:54;;;;;;;1.35;1.25;;;;;;;;;;7397973;19;20125;-86
2023/07/18 03:33:21;;;;;;;0.95;0.88;;;;;;;;;;7397988;19;20133;-85
2023/07/18 03:35:48;;;;;;;0.73;0.73;;;;;;;;;;7395837;19;20129;-85
2023/07/18 03:38:14;;;;;;;0.50;0.50;;;;;;;;;;7397152;19;20908;-85
2023/07/18 03:40:41;;;;;;;0.50;0.50;;;;;;;;;;7397617;19;20133;-84
2023/07/18 03:43:08;;;;;;;0.70;0.70;;;;;;;;;;7397231;19;20605;-85
2023/07/18 03:45:34;;;;;;;1.67;1.58;;;;;;;;;;7396611;19;20125;-85
2023/07/18 03:48:01;;;;;;;0.93;0.93;;;;;;;;;;7395005;19;20152;-85
2023/07/18 03:50:28;;;;;;;0.55;0.38;;;;;;;;;;7397839;19;20141;-85
2023/07/18 03:52:54;;;;;;;0.50;0.50;;;;;;;;;;7395986;19;20129;-84
2023/07/18 03:55:21;;;;;;;1.73;0.82;;;;;;;;;;7396214;19;20133;-85
2023/07/18 03:57:48;;;;;;;1.63;1.55;;;;;;;;;;7394466;19;20181;-83
2023/07/18 04:00:17;;;;;;;1.65;0.82;;;;;;;;;;7394292;19;20204;-85
2023/07/18 04:02:45;;;;;;;0.47;0.47;;;;;;;;;;7396670;19;20915;-85
2023/07/18 04:05:14;;;;;;;1.52;1.42;;;;;;;;;;7394487;19;20129;-86
2023/07/18 04:07:41;;;;;;;0.57;0.57;;;;;;;;;;7395185;19;20529;-85
2023/07/18 04:10:11;;;;;;;1.10;0.95;;;;;;;;;;7396442;19;20135;-85
2023/07/18 04:12:42;;;;;;;0.60;0.60;;;;;;;;;;7395534;19;20152;-85
2023/07/18 04:15:11;;;;;;;0.43;0.43;;;;;;;;;;7395706;19;20196;-85
2023/07/18 04:17:41;;;;;;;0.85;0.85;;;;;;;;;;7394568;19;20744;-85
2023/07/18 04:20:08;;;;;;;0.60;0.60;;;;;;;;;;7396968;19;20133;-85
2023/07/18 04:22:35;;;;;;;0.88;0.80;;;;;;;;;;7395898;19;20169;-84
2023/07/18 04:25:01;;;;;;;0.70;0.70;;;;;;;;;;7397904;19;20214;-85
2023/07/18 04:27:28;;;;;;;0.52;0.52;;;;;;;;;;7400663;19;20169;-86
2023/07/18 04:29:56;;;;;;;1.30;1.20;;;;;;;;;;7399625;19;20141;-86
2023/07/18 04:32:23;;;;;;;0.60;0.60;;;;;;;;;;7398147;19;20633;-85
2023/07/18 04:34:50;;;;;;;0.73;0.73;;;;;;;;;;7398707;19;20149;-85
2023/07/18 04:37:16;;;;;;;8.45;1.17;;;;;;;;;;7395373;19;20141;-85
2023/07/18 04:39:43;;;;;;;1.02;1.02;;;;;;;;;;7396568;19;20608;-86
2023/07/18 04:42:11;;;;;;;0.85;0.85;;;;;;;;;;7394610;19;20133;-85
2023/07/18 04:44:41;;;;;;;0.82;0.82;;;;;;;;;;7393803;19;20154;-86
2023/07/18 04:47:08;;;;;;;1.02;0.95;;;;;;;;;;7389551;19;20131;-85
2023/07/18 04:49:35;;;;;;;0.75;0.75;;;;;;;;;;7391096;19;20478;-86
2023/07/18 04:52:35;;;;;;;0.98;0.95;;;;;;;;;;7384552;19;20204;-84
2023/07/18 04:55:48;;;;;;;0.63;0.63;;;;;;;;;;7390599;19;20128;-85
2023/07/18 04:58:51;;;;;;;0.60;0.60;;;;;;;;;;7387649;19;20653;-85
2023/07/18 05:05:07;;;;;;;0.50;0.50;;;;;;;;;;7388764;19;20156;-84
2023/07/18 05:11:27;;;;;;;0.45;0.45;;;;;;;;;;7386763;19;20129;-84
2023/07/18 05:14:19;;;;;;;0.45;0.45;;;;;;;;;;7389071;19;20982;-84
2023/07/18 05:17:12;;;;;;;0.57;0.57;;;;;;;;;;7391115;19;20247;-84
2023/07/18 05:20:10;;;;;;;0.47;0.47;;;;;;;;;;7391251;19;20633;-84
2023/07/18 05:23:42;;;;;;;0.73;0.73;;;;;;;;;;7387777;19;20159;-84
2023/07/18 05:27:47;;;;;;;0.70;0.70;;;;;;;;;;7387661;19;20137;-84
2023/07/18 05:31:14;;;;;;;0.43;0.43;;;;;;;;;;7390574;19;20673;-83
2023/07/18 05:33:41;;;;;;;0.68;0.68;;;;;;;;;;7389443;19;20141;-85
2023/07/18 05:36:07;;;;;;;3.70;0.60;;;;;;;;;;7391938;19;20122;-85
2023/07/18 05:38:34;;;;;;;0.85;0.80;;;;;;;;;;7390269;19;20164;-86
2023/07/18 05:41:01;;;;;;;0.43;0.43;;;;;;;;;;7397812;19;20618;-86
2023/07/18 05:43:28;;;;;;;0.73;0.70;;;;;;;;;;7405177;19;20132;-88
2023/07/18 05:45:54;;;;;;;0.52;0.52;;;;;;;;;;7402856;19;20221;-88
2023/07/18 05:48:21;;;;;;;0.43;0.43;;;;;;;;;;7400473;19;20581;-88
2023/07/18 05:50:47;;;;;;;1.25;0.95;;;;;;;;;;7405933;19;20147;-87
2023/07/18 05:53:14;;;;;;;1.33;1.25;;;;;;;;;;7403297;19;20137;-87
2023/07/18 05:55:41;;;;;;;0.90;0.90;;;;;;;;;;7400753;19;20467;-87
2023/07/18 05:58:14;;;;;;;0.88;0.88;;;;;;;;;;7398192;19;20157;-86
2023/07/18 06:00:41;;;;;;;0.43;0.43;;;;;;;;;;7399100;19;20161;-87
2023/07/18 06:03:08;;;;;;;0.50;0.50;;;;;;;;;;7398683;19;20496;-86
2023/07/18 06:05:35;;;;;;;0.90;0.90;;;;;;;;;;7397389;19;20137;-87
2023/07/18 06:08:03;;;;;;;0.88;0.82;;;;;;;;;;7397571;19;20170;-86
2023/07/18 06:10:30;;;;;;;0.90;0.90;;;;;;;;;;7398127;19;20482;-87
2023/07/18 06:12:57;;;;;;;0.70;0.70;;;;;;;;;;7419946;19;20133;-85
2023/07/18 06:15:25;;;;;;;0.50;0.50;;;;;;;;;;7423259;19;20153;-86
2023/07/18 06:17:52;;;;;;;0.85;0.85;;;;;;;;;;7414000;19;20157;-87
2023/07/18 06:20:20;;;;;;;1.08;1.05;;;;;;;;;;7395659;19;20140;-87
2023/07/18 06:22:49;;;;;;;1.60;0.90;;;;;;;;;;7398682;19;20141;-87
2023/07/18 06:25:17;;;;;;;0.80;0.80;;;;;;;;;;7400615;19;20146;-86
2023/07/18 06:27:43;;;;;;;0.43;0.43;;;;;;;;;;7395305;19;20169;-85
2023/07/18 06:30:10;;;;;;;1.23;1.13;;;;;;;;;;7399939;19;20201;-86
2023/07/18 06:32:39;;;;;;;1.27;1.05;;;;;;;;;;7421240;19;20403;-87
2023/07/18 06:35:06;;;;;;;0.55;0.55;;;;;;;;;;7426965;19;20267;-87
2023/07/18 06:37:49;;;;;;;0.55;0.55;;;;;;;;;;7418139;19;20172;-86
2023/07/18 06:40:16;;;;;;;0.60;0.60;;;;;;;;;;7395569;19;20137;-86
2023/07/18 06:42:43;;;;;;;0.80;0.68;;;;;;;;;;7396179;19;20160;-86
2023/07/18 06:45:11;;;;;;;0.75;0.75;;;;;;;;;;7395932;19;20137;-86
2023/07/18 06:47:38;;;;;;;0.60;0.60;;;;;;;;;;7394775;19;20168;-85
2023/07/18 06:50:05;;;;;;;0.80;0.80;;;;;;;;;;7396108;19;20140;-86
2023/07/18 06:52:32;;;;;;;0.80;0.80;;;;;;;;;;7396042;19;20482;-87
2023/07/18 06:55:03;;;;;;;0.40;0.40;;;;;;;;;;7396305;19;20139;-86
2023/07/18 06:57:30;;;;;;;0.70;0.70;;;;;;;;;;7397735;19;20145;-87
2023/07/18 06:59:56;;;;;;;0.98;0.95;;;;;;;;;;7398334;19;20645;-87
2023/07/18 07:02:23;;;;;;;0.82;0.82;;;;;;;;;;7397484;19;20705;-86
2023/07/18 07:04:50;;;;;;;1.17;1.13;;;;;;;;;;7396784;19;20145;-87
2023/07/18 07:07:16;;;;;;;0.60;0.60;;;;;;;;;;7392178;19;20143;-89
2023/07/18 07:09:43;;;;;;;0.68;0.68;;;;;;;;;;7397463;19;20139;-86
2023/07/18 07:12:10;;;;;;;0.35;0.35;;;;;;;;;;7396264;19;20145;-87
2023/07/18 07:14:51;;;;;;;1.13;1.08;;;;;;;;;;7397215;19;20148;-86
2023/07/18 07:17:18;;;;;;;1.38;1.20;;;;;;;;;;7396152;19;20140;-86
2023/07/18 07:19:45;;;;;;;0.90;0.90;;;;;;;;;;7398244;19;20232;-86
2023/07/18 07:22:13;;;;;;;0.57;0.52;;;;;;;;;;7401918;19;20209;-86
2023/07/18 07:24:40;;;;;;;1.75;0.88;;;;;;;;;;7398403;19;20173;-87
2023/07/18 07:27:07;;;;;;;0.65;0.65;;;;;;;;;;7394551;19;20205;-85
2023/07/18 07:29:38;;;;;;;0.77;0.75;;;;;;;;;;7396618;19;20137;-86
2023/07/18 07:32:06;;;;;;;1.60;1.50;;;;;;;;;;7395440;19;20125;-86
2023/07/18 07:34:33;;;;;;;0.90;0.90;;;;;;;;;;7397487;19;20188;-86
2023/07/18 07:37:02;;;;;;;0.82;0.82;;;;;;;;;;7394979;19;20129;-86
2023/07/18 07:39:29;;;;;;;0.68;0.68;;;;;;;;;;7395879;19;20140;-86
2023/07/18 07:41:55;;;;;;;0.50;0.50;;;;;;;;;;7392845;19;20136;-86
2023/07/18 07:44:23;;;;;;;0.82;0.82;;;;;;;;;;7395349;19;20129;-86
2023/07/18 07:46:49;;;;;;;0.82;0.55;;;;;;;;;;7393198;19;20172;-86
2023/07/18 07:49:16;;;;;;;0.82;0.70;;;;;;;;;;7393309;19;20522;-86
2023/07/18 07:51:43;;;;;;;0.68;0.68;;;;;;;;;;7393327;19;20129;-86
2023/07/18 07:54:10;;;;;;;1.17;1.13;;;;;;;;;;7396343;19;20133;-86
2023/07/18 07:56:37;;;;;;;1.45;1.20;;;;;;;;;;7397360;19;20484;-87
2023/07/18 07:59:04;;;;;;;0.75;0.75;;;;;;;;;;7397991;19;20145;-87
2023/07/18 08:01:38;;;;;;;0.93;0.93;;;;;;;;;;7398319;19;20160;-86
2023/07/18 08:04:05;;;;;;;2.95;1.60;;;;;;;;;;7392370;19;20152;-89
2023/07/18 08:06:32;;;;;;;1.05;1.05;;;;;;;;;;7390574;19;20147;-89
2023/07/18 08:08:59;;;;;;;1.10;1.02;;;;;;;;;;7390938;19;20141;-90
2023/07/18 08:11:26;;;;;;;0.70;0.70;;;;;;;;;;7393857;19;20561;-91
2023/07/18 08:13:53;;;;;;;1.25;1.15;;;;;;;;;;7395011;19;20498;-87
2023/07/18 08:16:20;;;;;;;1.40;1.30;;;;;;;;;;7397641;19;20145;-86
2023/07/18 08:18:47;;;;;;;0.95;0.95;;;;;;;;;;7396887;19;20167;-88
2023/07/18 08:21:14;;;;;;;1.83;1.38;;;;;;;;;;7406258;19;20125;-84
2023/07/18 08:23:41;;;;;;;1.73;0.93;;;;;;;;;;7424913;19;20129;-84
2023/07/18 08:26:07;;;;;;;0.90;0.90;;;;;;;;;;7423375;19;20125;-86
2023/07/18 08:28:34;;;;;;;0.95;0.95;;;;;;;;;;7412034;19;20141;-87
2023/07/18 08:31:04;;;;;;;0.68;0.68;;;;;;;;;;7397264;19;20151;-87
2023/07/18 08:33:31;;;;;;;0.95;0.95;;;;;;;;;;7396586;19;20149;-89
2023/07/18 08:35:58;;;;;;;0.98;0.95;;;;;;;;;;7398068;19;20627;-88
2023/07/18 08:38:24;;;;;;;1.08;0.95;;;;;;;;;;7397446;19;20191;-88
2023/07/18 08:40:52;;;;;;;1.50;1.38;;;;;;;;;;7398660;19;20145;-86
2023/07/18 08:43:19;;;;;;;1.75;1.13;;;;;;;;;;7398601;19;20137;-88
2023/07/18 08:45:46;;;;;;;1.58;1.48;;;;;;;;;;7400003;19;20136;-86
2023/07/18 08:48:13;;;;;;;1.33;1.30;;;;;;;;;;7395957;19;20625;-87
2023/07/18 08:50:41;;;;;;;0.70;0.70;;;;;;;;;;7395974;19;20129;-88
2023/07/18 08:53:08;;;;;;;1.27;1.15;;;;;;;;;;7390796;19;20125;-86
2023/07/18 08:55:36;;;;;;;1.08;1.05;;;;;;;;;;7394503;19;20192;-88
2023/07/18 08:58:04;;;;;;;1.42;1.33;;;;;;;;;;7394001;19;20145;-87
2023/07/18 09:00:30;;;;;;;0.70;0.70;;;;;;;;;;7392016;19;20137;-86
2023/07/18 09:02:57;;;;;;;1.38;1.27;;;;;;;;;;7396741;19;20129;-88
2023/07/18 09:05:37;;;;;;;1.30;0.93;;;;;;;;;;7398142;19;20160;-87
2023/07/18 09:08:05;;;;;;;0.70;0.70;;;;;;;;;;7404218;19;20169;-86
2023/07/18 09:10:32;;;;;;;1.83;1.20;;;;;;;;;;7395264;19;20157;-86
2023/07/18 09:13:09;;;;;;;0.93;0.93;;;;;;;;;;7406410;19;20133;-86
2023/07/18 09:15:37;;;;;;;1.58;1.50;;;;;;;;;;7401236;19;20129;-87
2023/07/18 09:18:08;;;;;;;0.75;0.75;;;;;;;;;;7402293;19;20175;-88
2023/07/18 09:20:35;;;;;;;1.13;1.13;;;;;;;;;;7404147;19;20122;-89
2023/07/18 09:23:03;;;;;;;1.60;1.17;;;;;;;;;;7401081;19;20147;-89
2023/07/18 09:25:31;;;;;;;1.75;1.63;;;;;;;;;;7402476;19;20491;-88
2023/07/18 09:27:58;;;;;;;1.20;1.20;;;;;;;;;;7397100;19;20145;-88
2023/07/18 09:30:34;;;;;;;2.00;1.02;;;;;;;;;;7401897;19;20140;-88
2023/07/18 09:33:04;;;;;;;1.65;1.55;;;;;;;;;;7401578;19;20141;-88
2023/07/18 09:35:42;;;;;;;1.67;1.45;;;;;;;;;;7401595;19;20204;-88
2023/07/18 09:38:10;;;;;;;1.38;1.27;;;;;;;;;;7403037;19;20145;-88
2023/07/18 09:40:37;;;;;;;1.67;1.50;;;;;;;;;;7402319;19;20176;-87
2023/07/18 09:43:05;;;;;;;1.05;1.05;;;;;;;;;;7402303;19;20129;-88
2023/07/18 09:45:32;;;;;;;0.50;0.50;;;;;;;;;;7402019;19;20212;-88
2023/07/18 09:47:59;;;;;;;0.70;0.70;;;;;;;;;;7399406;19;20153;-89
2023/07/18 09:50:26;;;;;;;1.10;1.05;;;;;;;;;;7409064;19;20474;-89
2023/07/18 09:52:56;;;;;;;1.02;0.95;;;;;;;;;;7407556;19;20169;-88
2023/07/18 09:55:27;;;;;;;0.95;0.95;;;;;;;;;;7408603;19;20139;-88
2023/07/18 09:57:59;;;;;;;0.47;0.47;;;;;;;;;;7405255;19;20141;-88
2023/07/18 10:00:26;;;;;;;1.20;1.08;;;;;;;;;;7408608;19;20133;-89
2023/07/18 10:02:55;;;;;;;1.33;0.80;;;;;;;;;;7422385;19;20137;-87
2023/07/18 10:05:22;;;;;;;1.08;0.98;;;;;;;;;;7428808;19;20145;-86
2023/07/18 10:07:48;;;;;;;0.50;0.50;;;;;;;;;;7422036;19;20141;-89
2023/07/18 10:10:15;;;;;;;1.02;1.00;;;;;;;;;;7396527;19;20133;-90
2023/07/18 10:12:58;;;;;;;0.60;0.60;;;;;;;;;;7392065;19;20125;-89
2023/07/18 10:15:25;;;;;;;2.05;0.77;;;;;;;;;;7395755;19;20521;-89
2023/07/18 10:17:52;;;;;;;0.70;0.70;;;;;;;;;;7397573;19;20550;-89
2023/07/18 10:20:22;;;;;;;0.95;0.95;;;;;;;;;;7397605;19;20232;-90
2023/07/18 10:22:58;;;;;;;1.63;1.52;;;;;;;;;;7399865;19;20137;-88
2023/07/18 10:25:29;;;;;;;2.65;1.58;;;;;;;;;;7397092;19;20196;-90
2023/07/18 10:27:57;;;;;;;1.17;1.08;;;;;;;;;;7396170;19;20162;-89
2023/07/18 10:30:41;;;;;;;0.65;0.65;;;;;;;;;;7398831;19;20129;-90
2023/07/18 10:33:08;;;;;;;1.20;1.10;;;;;;;;;;7418762;19;20129;-87
2023/07/18 10:35:41;;;;;;;0.57;0.57;;;;;;;;;;7428821;19;20152;-86
2023/07/18 10:38:08;;;;;;;0.63;0.63;;;;;;;;;;7424459;19;20145;-88
2023/07/18 10:40:40;;;;;;;0.80;0.80;;;;;;;;;;7405834;19;20136;-89
2023/07/18 10:43:12;;;;;;;0.82;0.82;;;;;;;;;;7401377;19;20143;-88
2023/07/18 10:45:40;;;;;;;1.17;1.17;;;;;;;;;;7401959;19;20128;-90
2023/07/18 10:48:17;;;;;;;0.75;0.75;;;;;;;;;;7398805;19;20172;-89
2023/07/18 10:50:47;;;;;;;0.65;0.65;;;;;;;;;;7400603;19;20140;-89
2023/07/18 10:53:17;;;;;;;0.85;0.85;;;;;;;;;;7402444;19;20125;-90
2023/07/18 10:55:45;;;;;;;0.90;0.90;;;;;;;;;;7398807;19;20151;-88
2023/07/18 10:58:17;;;;;;;0.98;0.88;;;;;;;;;;7397924;19;20152;-89
2023/07/18 11:00:45;;;;;;;0.82;0.82;;;;;;;;;;7396086;19;20144;-89
2023/07/18 11:03:23;;;;;;;0.85;0.85;;;;;;;;;;7402861;19;20141;-89
2023/07/18 11:05:52;;;;;;;0.70;0.70;;;;;;;;;;7398391;19;20141;-89
2023/07/18 11:08:25;;;;;;;7.85;1.15;;;;;;;;;;7398533;19;20224;-88
2023/07/18 11:11:00;;;;;;;0.90;0.90;;;;;;;;;;7400567;19;20143;-88
2023/07/18 11:13:28;;;;;;;0.88;0.88;;;;;;;;;;7400216;19;20557;-88
2023/07/18 11:15:57;;;;;;;1.02;0.75;;;;;;;;;;7397997;19;20137;-88
2023/07/18 11:18:23;;;;;;;1.02;0.82;;;;;;;;;;7396770;19;20149;-88
2023/07/18 11:20:52;;;;;;;0.65;0.65;;;;;;;;;;7398834;19;20606;-90
2023/07/18 11:23:20;;;;;;;1.27;1.20;;;;;;;;;;7393110;19;20133;-91
2023/07/18 11:25:46;;;;;;;0.70;0.70;;;;;;;;;;7393202;19;20621;-91
2023/07/18 11:28:15;;;;;;;3.15;0.65;;;;;;;;;;7394117;19;20160;-90
2023/07/18 11:30:44;;;;;;;1.02;0.80;;;;;;;;;;7396201;19;20121;-90
2023/07/18 11:33:13;;;;;;;0.50;0.50;;;;;;;;;;7396391;19;20149;-91
2023/07/18 11:35:47;;;;;;;0.70;0.70;;;;;;;;;;7395318;19;20153;-90
2023/07/18 11:38:17;;;;;;;0.50;0.50;;;;;;;;;;7391106;19;20228;-90
2023/07/18 11:40:44;;;;;;;3.05;1.23;;;;;;;;;;7394408;19;20744;-90
2023/07/18 11:43:17;;;;;;;3.35;1.33;;;;;;;;;;7394846;19;20121;-90
2023/07/18 11:45:46;;;;;;;1.02;0.98;;;;;;;;;;7396469;19;20589;-91
2023/07/18 11:48:15;;;;;;;0.82;0.82;;;;;;;;;;7391500;19;20163;-91
2023/07/18 11:50:45;;;;;;;1.02;1.02;;;;;;;;;;7392657;19;20145;-91
2023/07/18 11:53:12;;;;;;;1.10;1.10;;;;;;;;;;7392720;19;20165;-91
2023/07/18 11:55:39;;;;;;;1.05;1.00;;;;;;;;;;7396341;19;20145;-90
2023/07/18 11:58:07;;;;;;;1.40;1.30;;;;;;;;;;7395690;19;20488;-89
2023/07/18 12:00:35;;;;;;;1.25;1.20;;;;;;;;;;7397224;19;20550;-91
2023/07/18 12:03:02;;;;;;;0.70;0.70;;;;;;;;;;7395299;19;20174;-90
2023/07/18 12:05:29;;;;;;;0.93;0.93;;;;;;;;;;7396636;19;20585;-90
2023/07/18 12:07:56;;;;;;;1.15;1.15;;;;;;;;;;7396940;19;20178;-90
2023/07/18 12:10:22;;;;;;;0.65;0.65;;;;;;;;;;7394889;19;20148;-90
2023/07/18 12:12:51;;;;;;;3.75;1.63;;;;;;;;;;7394132;19;20137;-90
2023/07/18 12:15:18;;;;;;;4.03;1.35;;;;;;;;;;7394817;19;20143;-89
2023/07/18 12:17:46;;;;;;;1.10;1.10;;;;;;;;;;7399214;19;20168;-89
2023/07/18 12:20:14;;;;;;;0.98;0.98;;;;;;;;;;7400978;19;20196;-89
2023/07/18 12:22:40;;;;;;;1.75;1.15;;;;;;;;;;7403774;19;20145;-90
2023/07/18 12:25:08;;;;;;;1.42;0.98;;;;;;;;;;7400943;19;20137;-93
2023/07/18 12:27:35;;;;;;;1.45;1.35;;;;;;;;;;7396971;19;20164;-93
2023/07/18 12:30:02;;;;;;;1.00;1.00;;;;;;;;;;7394107;19;20141;-90
2023/07/18 12:32:29;;;;;;;1.17;1.15;;;;;;;;;;7396957;19;20137;-90
2023/07/18 12:34:58;;;;;;;1.85;1.75;;;;;;;;;;7396735;19;20160;-91
2023/07/18 12:37:24;;;;;;;0.95;0.95;;;;;;;;;;7398437;19;20184;-89
2023/07/18 12:39:51;;;;;;;1.23;1.13;;;;;;;;;;7398750;19;20125;-89
2023/07/18 12:42:18;;;;;;;1.75;1.20;;;;;;;;;;7396284;19;20200;-90
2023/07/18 12:44:45;;;;;;;1.70;1.55;;;;;;;;;;7390936;19;20137;-91
2023/07/18 12:47:11;;;;;;;1.20;1.15;;;;;;;;;;7389903;19;20137;-91
2023/07/18 12:49:39;;;;;;;1.17;1.17;;;;;;;;;;7396980;19;20613;-90
2023/07/18 12:52:08;;;;;;;1.77;1.67;;;;;;;;;;7396399;19;20137;-91
2023/07/18 12:54:35;;;;;;;0.60;0.60;;;;;;;;;;7393498;19;20486;-91
2023/07/18 12:57:02;;;;;;;1.50;1.48;;;;;;;;;;7394836;19;20144;-91
2023/07/18 20:42:08;;;;;;;3.90;1.23;;;;;;;;;;7393099;19;20208;-86
2023/07/18 20:44:48;;;;;;;1.08;1.08;;;;;;;;;;7395557;19;20140;-86
2023/07/18 20:48:04;;;;;;;1.48;1.38;;;;;;;;;;7392152;19;20153;-86
2023/07/18 20:54:51;;;;;;;1.05;1.05;;;;;;;;;;7396075;19;20152;-86
2023/07/18 20:58:21;;;;;;;1.08;1.05;;;;;;;;;;7390144;19;20170;-86
2023/07/18 21:01:51;;;;;;;0.85;0.85;;;;;;;;;;7392660;19;20132;-86
2023/07/18 21:04:20;;;;;;;0.60;0.60;;;;;;;;;;7391535;19;20628;-86
2023/07/18 21:07:44;;;;;;;0.95;0.95;;;;;;;;;;7391607;19;20166;-86
2023/07/18 21:10:52;;;;;;;1.02;1.02;;;;;;;;;;7391120;19;20228;-86
2023/07/18 21:17:18;;;;;;;0.50;0.50;;;;;;;;;;7396996;19;20195;-86
2023/07/18 21:27:56;;;;;;;0.60;0.60;;;;;;;;;;7396437;19;20524;-86
2023/07/18 21:35:04;;;;;;;1.95;1.08;;;;;;;;;;7398444;19;20132;-87
2023/07/18 21:45:02;;;;;;;5.68;1.73;;;;;;;;;;7394652;19;20119;-87
2023/07/18 21:48:05;;;;;;;3.53;2.22;;;;;;;;;;7395547;19;20164;-86
2023/07/18 21:51:27;;;;;;;1.08;1.00;;;;;;;;;;7394699;19;20221;-86
2023/07/18 21:53:55;;;;;;;1.05;1.05;;;;;;;;;;7396674;19;20177;-87
2023/07/18 21:56:22;;;;;;;1.48;1.38;;;;;;;;;;7395350;19;20241;-85
2023/07/18 21:58:49;;;;;;;1.02;1.02;;;;;;;;;;7394274;19;20202;-87
2023/07/18 22:01:15;;;;;;;0.95;0.95;;;;;;;;;;7400777;19;20155;-88
2023/07/18 22:03:42;;;;;;;3.38;1.63;;;;;;;;;;7400678;19;20137;-86
2023/07/18 22:06:09;;;;;;;0.95;0.95;;;;;;;;;;7399087;19;20192;-87
2023/07/18 22:08:35;;;;;;;0.88;0.88;;;;;;;;;;7398628;19;20224;-87
2023/07/18 22:11:02;;;;;;;0.75;0.75;;;;;;;;;;7396272;19;20145;-87
2023/07/18 22:13:32;;;;;;;1.13;1.00;;;;;;;;;;7395715;19;20155;-87
2023/07/18 22:15:59;;;;;;;0.80;0.80;;;;;;;;;;7399473;19;20156;-87
2023/07/18 22:18:25;;;;;;;1.15;1.15;;;;;;;;;;7397668;19;20167;-87
2023/07/18 22:20:53;;;;;;;0.77;0.77;;;;;;;;;;7398535;19;20141;-87
2023/07/18 22:23:51;;;;;;;1.20;1.10;;;;;;;;;;7396935;19;20165;-86
2023/07/18 22:40:26;;;;;;;1.38;1.27;;;;;;;;;;7394959;19;20611;-86
2023/07/18 22:42:52;;;;;;;0.85;0.85;;;;;;;;;;7396638;19;20140;-86
2023/07/18 22:45:19;;;;;;;1.58;1.48;;;;;;;;;;7396430;19;20205;-86
2023/07/18 22:48:21;;;;;;;0.68;0.68;;;;;;;;;;7394665;19;20161;-87
2023/07/18 22:50:50;;;;;;;1.15;1.08;;;;;;;;;;7397897;19;20141;-86
2023/07/18 22:53:18;;;;;;;1.35;1.25;;;;;;;;;;7396818;19;20141;-87
2023/07/18 22:55:48;;;;;;;1.05;1.05;;;;;;;;;;7396685;19;20133;-86
2023/07/18 22:58:16;;;;;;;1.20;1.20;;;;;;;;;;7396310;19;20621;-86
2023/07/18 23:00:48;;;;;;;1.10;1.10;;;;;;;;;;7397764;19;20137;-87
2023/07/18 23:03:15;;;;;;;1.00;0.93;;;;;;;;;;7397273;19;20137;-87
2023/07/18 23:05:42;;;;;;;1.27;1.17;;;;;;;;;;7394501;19;20137;-86
2023/07/18 23:08:08;;;;;;;1.35;1.25;;;;;;;;;;7395805;19;20172;-86
2023/07/18 23:10:35;;;;;;;1.45;1.38;;;;;;;;;;7397004;19;20196;-86
2023/07/18 23:13:02;;;;;;;0.85;0.85;;;;;;;;;;7395653;19;20133;-86
2023/07/18 23:15:30;;;;;;;1.10;0.68;;;;;;;;;;7394443;19;20628;-87
2023/07/18 23:17:58;;;;;;;1.33;1.23;;;;;;;;;;7395927;19;20626;-87
2023/07/18 23:27:26;;;;;;;0.82;0.82;;;;;;;;;;7401590;19;20126;-87
2023/07/18 23:29:54;;;;;;;0.90;0.90;;;;;;;;;;7399359;19;20168;-87
2023/07/18 23:32:21;;;;;;;0.95;0.95;;;;;;;;;;7398347;19;20140;-87
2023/07/18 23:34:51;;;;;;;1.42;1.30;;;;;;;;;;7398069;19;20141;-87
2023/07/18 23:37:41;;;;;;;1.40;1.30;;;;;;;;;;7396119;19;20127;-87
2023/07/18 23:40:10;;;;;;;0.95;0.95;;;;;;;;;;7394230;19;20149;-87
2023/07/18 23:42:37;;;;;;;1.13;1.02;;;;;;;;;;7395747;19;20137;-88